Time;durP1;ratioP1;P1;durP2;ratioP2;P2;SDS_P1;SDS_P2;PMS_P1;PMS_P2;Temp;Humidity;BMP_temperature;BMP_pressure;BME280_temperature;BME280_humidity;BME280_pressure;Samples;Min_cycle;Max_cycle;Signal;HPM_P1;HPM_P2
2023/04/07 00:01:51;;;;;;;3.90;1.60;;;;;;;1.41;100.00;101458.38;5001109;28;20108;-77
2023/04/07 00:04:17;;;;;;;5.95;1.60;;;;;;;1.43;100.00;101451.19;5001558;28;20480;-79
2023/04/07 00:06:42;;;;;;;1.88;1.30;;;;;;;1.44;100.00;101454.69;5001177;28;20045;-80
2023/04/07 00:09:10;;;;;;;2.85;1.52;;;;;;;1.40;100.00;101446.06;5000677;28;20468;-85
2023/04/07 00:11:36;;;;;;;1.85;1.15;;;;;;;1.48;100.00;101459.69;5017531;28;20182;-78
2023/04/07 00:14:02;;;;;;;3.35;1.30;;;;;;;1.48;100.00;101456.16;5001347;28;20083;-78
2023/04/07 00:16:28;;;;;;;4.40;1.13;;;;;;;1.46;100.00;101455.44;5033623;28;20539;-81
2023/04/07 00:18:53;;;;;;;2.25;1.40;;;;;;;1.42;100.00;101453.94;5001229;28;20032;-78
2023/04/07 00:21:19;;;;;;;3.42;1.73;;;;;;;1.36;100.00;101452.53;5001433;28;20137;-80
2023/04/07 00:23:46;;;;;;;2.90;1.50;;;;;;;1.41;100.00;101449.59;5000554;28;20380;-78
2023/04/07 00:26:12;;;;;;;2.78;1.20;;;;;;;1.39;100.00;101444.38;5033091;28;20033;-78
2023/04/07 00:28:37;;;;;;;1.70;1.15;;;;;;;1.34;100.00;101448.28;5001138;28;20037;-77
2023/04/07 00:31:03;;;;;;;2.67;1.42;;;;;;;1.33;100.00;101449.25;5000644;28;20045;-81
2023/04/07 00:33:29;;;;;;;4.07;1.60;;;;;;;1.17;100.00;101430.81;5001012;28;20116;-79
2023/04/07 00:35:57;;;;;;;2.05;1.40;;;;;;;1.25;100.00;101453.22;5017125;28;20384;-78
2023/04/07 00:38:23;;;;;;;7.93;1.50;;;;;;;1.24;100.00;101453.31;5032719;28;20041;-81
2023/04/07 00:40:52;;;;;;;2.13;1.38;;;;;;;1.22;100.00;101445.47;5000979;28;20419;-78
2023/04/07 00:43:18;;;;;;;1.65;1.38;;;;;;;1.19;100.00;101443.03;5017159;28;20486;-79
2023/04/07 00:45:45;;;;;;;3.50;1.40;;;;;;;1.15;100.00;101438.84;5032489;28;20084;-81
2023/04/07 00:48:10;;;;;;;2.58;1.58;;;;;;;1.09;100.00;101437.47;5032987;28;20025;-80
2023/04/07 00:50:36;;;;;;;2.92;1.40;;;;;;;1.10;100.00;101439.16;5000818;28;20056;-78
2023/04/07 00:53:02;;;;;;;3.28;1.50;;;;;;;1.07;100.00;101434.06;5000382;28;20076;-79
2023/04/07 00:55:27;;;;;;;1.33;1.00;;;;;;;1.12;100.00;101436.41;5000511;28;20040;-78
2023/04/07 00:57:53;;;;;;;1.73;1.20;;;;;;;1.13;100.00;101432.81;5000641;28;20041;-78
2023/04/07 01:00:19;;;;;;;2.40;1.33;;;;;;;1.15;100.00;101438.84;5000349;28;20048;-78
2023/04/07 01:02:55;;;;;;;3.95;1.55;;;;;;;1.18;100.00;101433.38;5000449;28;20504;-78
2023/04/07 01:05:28;;;;;;;3.80;1.75;;;;;;;1.12;100.00;101415.22;5016552;28;20037;-78
2023/04/07 01:08:14;;;;;;;2.83;1.48;;;;;;;1.25;100.00;101426.72;5032116;28;20041;-77
2023/04/07 01:10:50;;;;;;;2.30;1.45;;;;;;;1.35;100.00;101431.41;5033112;28;20480;-80
2023/04/07 01:13:24;;;;;;;4.28;1.83;;;;;;;1.37;100.00;101429.53;5032141;28;20370;-84
2023/04/07 01:15:51;;;;;;;;;;;;;;;1.32;100.00;101427.16;5000423;28;20480;-76
2023/04/07 01:18:21;;;;;;;5.78;1.45;;;;;;;1.28;100.00;101415.94;5032488;28;19913;-83
2023/04/07 01:20:49;;;;;;;3.38;1.40;;;;;;;1.35;100.00;101424.34;4999815;28;20049;-79
2023/04/07 01:23:52;;;;;;;3.40;1.88;;;;;;;1.37;100.00;101418.94;5015986;28;20025;-79
2023/04/07 01:26:24;;;;;;;5.30;1.70;;;;;;;1.45;100.00;101421.91;5016086;28;20395;-81
2023/04/07 01:29:31;;;;;;;2.50;1.70;;;;;;;1.51;100.00;101418.88;5015895;28;20026;-78
2023/04/07 01:32:00;;;;;;;2.00;1.05;;;;;;;1.52;100.00;101425.88;5015783;28;20132;-79
2023/04/07 01:34:26;;;;;;;5.45;2.17;;;;;;;1.51;100.00;101426.84;5016359;28;20064;-79
2023/04/07 01:36:53;;;;;;;2.83;1.88;;;;;;;1.42;100.00;101416.81;4999671;28;20034;-79
2023/04/07 01:39:19;;;;;;;4.22;1.58;;;;;;;1.35;100.00;101424.34;4999356;28;20424;-79
2023/04/07 01:41:45;;;;;;;3.13;1.55;;;;;;;1.28;100.00;101417.72;4999695;28;20040;-80
2023/04/07 01:44:11;;;;;;;4.55;1.90;;;;;;;1.33;100.00;101420.94;4999869;28;20071;-80
2023/04/07 01:46:37;;;;;;;3.55;1.75;;;;;;;1.40;100.00;101424.03;4998697;28;20040;-80
2023/04/07 01:49:03;;;;;;;7.18;1.73;;;;;;;1.46;100.00;101416.53;4998889;28;20468;-79
2023/04/07 01:51:30;;;;;;;3.45;2.03;;;;;;;1.39;100.00;101385.22;4998707;28;20565;-79
2023/04/07 01:53:56;;;;;;;4.88;2.00;;;;;;;1.49;100.00;101415.47;5014867;28;20103;-81
2023/04/07 01:56:22;;;;;;;3.60;1.75;;;;;;;1.39;100.00;101414.38;5015914;28;20148;-78
2023/04/07 01:58:47;;;;;;;5.47;2.28;;;;;;;1.31;100.00;101418.38;5015629;28;20150;-81
2023/04/07 02:01:13;;;;;;;5.05;2.20;;;;;;;1.25;100.00;101421.44;5015507;28;20483;-79
2023/04/07 02:03:44;;;;;;;4.70;2.05;;;;;;;1.10;100.00;101401.22;4999413;28;20061;-81
2023/04/07 02:06:12;;;;;;;2.70;1.60;;;;;;;1.12;100.00;101409.09;4999116;28;20389;-79
2023/04/07 02:08:42;;;;;;;2.38;1.77;;;;;;;1.17;100.00;101420.22;5015763;28;20091;-81
2023/04/07 02:11:09;;;;;;;5.25;1.95;;;;;;;1.10;100.00;101399.41;5015837;28;20060;-79
2023/04/07 02:13:36;;;;;;;3.30;1.65;;;;;;;1.20;100.00;101399.69;4999729;28;20068;-78
2023/04/07 02:16:03;;;;;;;5.25;2.08;;;;;;;1.30;100.00;101419.34;4999460;28;20033;-83
2023/04/07 02:18:31;;;;;;;3.65;1.65;;;;;;;1.34;100.00;101413.84;4999597;28;20037;-80
2023/04/07 02:20:57;;;;;;;5.40;1.80;;;;;;;1.36;100.00;101419.88;4983721;28;20030;-79
2023/04/07 02:23:23;;;;;;;3.38;1.73;;;;;;;1.35;100.00;101408.44;5015670;28;20038;-79
2023/04/07 02:25:48;;;;;;;2.15;1.23;;;;;;;1.53;100.00;101409.88;5030911;28;20030;-79
2023/04/07 02:28:14;;;;;;;3.05;1.17;;;;;;;1.57;100.00;101402.56;4999217;28;20041;-77
2023/04/07 02:30:40;;;;;;;5.03;1.75;;;;;;;1.67;100.00;101408.97;4999843;28;20033;-79
2023/04/07 02:33:05;;;;;;;5.10;1.98;;;;;;;1.62;100.00;101394.31;5018407;28;20033;-78
2023/04/07 02:35:31;;;;;;;1.35;1.00;;;;;;;1.43;100.00;101384.06;5019138;28;20056;-77
2023/04/07 02:37:57;;;;;;;3.78;1.67;;;;;;;1.45;100.00;101400.72;5035259;28;20033;-78
2023/04/07 02:40:22;;;;;;;2.35;1.50;;;;;;;1.36;100.00;101391.59;5003150;28;20029;-77
2023/04/07 02:42:48;;;;;;;11.00;2.03;;;;;;;1.32;100.00;101395.38;5003127;28;20037;-80
2023/04/07 02:45:14;;;;;;;3.10;1.73;;;;;;;1.28;100.00;101402.69;5003080;28;20091;-79
2023/04/07 02:47:40;;;;;;;3.80;1.75;;;;;;;1.18;100.00;101393.63;5018855;28;20030;-86
2023/04/07 02:50:06;;;;;;;2.50;1.60;;;;;;;1.10;100.00;101390.63;5002991;28;20025;-80
2023/04/07 02:52:32;;;;;;;3.20;1.83;;;;;;;1.02;100.00;101392.94;5002742;28;20583;-80
2023/04/07 02:54:57;;;;;;;2.92;1.50;;;;;;;0.92;100.00;101397.09;5002415;28;20049;-80
2023/04/07 02:57:23;;;;;;;3.25;1.73;;;;;;;0.88;100.00;101394.66;5002501;28;20028;-80
2023/04/07 02:59:49;;;;;;;5.60;1.80;;;;;;;0.88;100.00;101399.09;5002812;28;20025;-81
2023/04/07 03:02:14;;;;;;;2.83;1.35;;;;;;;0.84;100.00;101390.50;5034606;28;20036;-79
2023/04/07 03:04:41;;;;;;;5.05;1.75;;;;;;;0.74;100.00;101383.22;5002494;28;20515;-80
2023/04/07 03:07:07;;;;;;;4.00;1.73;;;;;;;0.71;100.00;101386.91;5034741;28;20042;-85
2023/04/07 03:09:34;;;;;;;5.90;1.90;;;;;;;0.74;100.00;101388.53;5035133;28;20507;-80
2023/04/07 03:12:01;;;;;;;5.30;1.70;;;;;;;0.71;100.00;101386.91;5019068;28;20123;-83
2023/04/07 03:14:27;;;;;;;6.72;1.52;;;;;;;0.78;100.00;101379.47;5018324;28;20033;-81
2023/04/07 03:16:53;;;;;;;0.57;0.57;;;;;;;0.89;100.00;101387.56;5002528;28;20033;-77
2023/04/07 03:19:18;;;;;;;2.05;1.58;;;;;;;1.04;100.00;101385.75;5018431;28;20052;-81
2023/04/07 03:21:44;;;;;;;3.35;1.17;;;;;;;1.07;100.00;101380.25;5001777;28;20052;-79
2023/04/07 03:24:10;;;;;;;1.00;0.93;;;;;;;1.12;100.00;101375.50;5002442;28;20030;-80
2023/04/07 03:26:36;;;;;;;5.95;1.73;;;;;;;1.16;100.00;101384.94;5018457;28;20026;-80
2023/04/07 03:29:03;;;;;;;2.58;1.60;;;;;;;1.10;100.00;101372.94;5017765;28;20042;-77
2023/04/07 03:31:29;;;;;;;2.22;1.35;;;;;;;1.08;100.00;101376.63;5034671;28;20156;-77
2023/04/07 03:33:55;;;;;;;3.33;1.35;;;;;;;1.02;100.00;101364.63;5001959;28;20034;-78
2023/04/07 03:36:20;;;;;;;5.82;1.70;;;;;;;1.04;100.00;101369.84;5001110;28;20082;-84
2023/04/07 03:38:47;;;;;;;5.07;1.73;;;;;;;1.01;100.00;101370.06;5018551;28;20035;-79
2023/04/07 03:41:13;;;;;;;5.97;1.75;;;;;;;0.98;100.00;101365.81;5034723;28;20033;-78
2023/04/07 03:43:38;;;;;;;3.30;2.00;;;;;;;1.04;100.00;101364.56;5000910;28;20041;-79
2023/04/07 03:46:04;;;;;;;5.03;1.52;;;;;;;1.05;100.00;101360.94;5001877;28;20033;-79
2023/04/07 03:48:30;;;;;;;3.78;1.63;;;;;;;1.05;100.00;101361.78;5018184;28;20049;-79
2023/04/07 03:50:56;;;;;;;5.72;1.70;;;;;;;1.02;100.00;101362.00;5001300;28;20025;-81
2023/04/07 03:53:22;;;;;;;2.92;1.38;;;;;;;1.03;100.00;101357.53;5018272;28;20037;-77
2023/04/07 03:55:50;;;;;;;3.08;1.35;;;;;;;1.07;100.00;101356.41;5001688;28;20183;-79
2023/04/07 03:58:16;;;;;;;3.90;1.73;;;;;;;1.08;100.00;101345.69;5001606;28;20043;-79
2023/04/07 04:00:41;;;;;;;6.28;2.10;;;;;;;1.10;100.00;101351.75;5001600;28;20120;-80
2023/04/07 04:03:07;;;;;;;2.70;1.25;;;;;;;1.01;100.00;101343.56;5017809;28;20033;-78
2023/04/07 04:05:33;;;;;;;2.38;1.35;;;;;;;0.99;100.00;101341.00;5001232;28;20033;-80
2023/04/07 04:07:58;;;;;;;2.70;1.15;;;;;;;0.96;100.00;101346.50;5001586;28;20502;-79
2023/04/07 04:10:24;;;;;;;2.58;1.30;;;;;;;1.01;100.00;101341.75;5001529;28;20453;-78
2023/04/07 04:12:50;;;;;;;2.30;1.13;;;;;;;0.99;100.00;101340.16;5000516;28;20034;-80
2023/04/07 04:15:15;;;;;;;3.65;1.65;;;;;;;0.99;100.00;101335.72;5001231;28;20088;-82
2023/04/07 04:17:41;;;;;;;1.67;1.20;;;;;;;0.99;100.00;101329.56;5001399;28;20480;-81
2023/04/07 04:20:07;;;;;;;1.55;1.10;;;;;;;0.92;100.00;101331.75;5001239;28;20033;-81
2023/04/07 04:22:34;;;;;;;2.83;1.63;;;;;;;0.83;100.00;101341.16;5001314;28;20061;-81
2023/04/07 04:24:59;;;;;;;4.75;1.92;;;;;;;0.75;100.00;101335.50;4984890;28;20451;-79
2023/04/07 04:27:25;;;;;;;2.28;1.80;;;;;;;0.72;100.00;101325.13;5000675;28;20065;-84
2023/04/07 04:29:52;;;;;;;2.65;1.30;;;;;;;0.78;100.00;101323.88;5000475;28;20041;-80
2023/04/07 04:32:18;;;;;;;2.92;1.58;;;;;;;0.81;100.00;101326.31;5017606;28;20065;-77
2023/04/07 04:34:44;;;;;;;4.20;1.70;;;;;;;0.80;100.00;101321.97;5016992;28;20036;-79
2023/04/07 04:37:10;;;;;;;4.15;1.50;;;;;;;0.82;100.00;101328.00;5000858;28;20041;-80
2023/04/07 04:39:36;;;;;;;4.10;1.40;;;;;;;0.79;100.00;101318.47;5017431;28;20071;-77
2023/04/07 04:42:02;;;;;;;2.55;1.55;;;;;;;0.76;100.00;101318.66;5016078;28;20132;-77
2023/04/07 04:44:29;;;;;;;3.47;1.38;;;;;;;0.77;100.00;101314.25;5000729;28;20041;-80
2023/04/07 04:46:55;;;;;;;7.15;1.50;;;;;;;0.78;100.00;101306.19;5017099;28;20037;-78
2023/04/07 04:49:21;;;;;;;3.00;1.92;;;;;;;0.86;100.00;101313.63;5000289;28;20476;-78
2023/04/07 04:51:47;;;;;;;3.05;1.70;;;;;;;0.85;100.00;101309.28;5000322;28;20029;-78
2023/04/07 04:54:13;;;;;;;3.05;1.50;;;;;;;0.77;100.00;101304.50;5000109;28;20041;-82
2023/04/07 04:56:38;;;;;;;2.03;1.30;;;;;;;0.71;100.00;101312.81;5000237;28;20049;-80
2023/04/07 04:59:04;;;;;;;2.45;1.50;;;;;;;0.62;100.00;101316.91;4998710;28;20033;-85
2023/04/07 05:01:30;;;;;;;2.53;1.50;;;;;;;0.53;100.00;101308.69;5032807;28;20092;-80
2023/04/07 05:03:56;;;;;;;2.35;1.48;;;;;;;0.49;100.00;101310.69;5000259;28;20132;-78
2023/04/07 05:06:22;;;;;;;1.95;1.30;;;;;;;0.47;100.00;101306.44;4999365;28;20064;-79
2023/04/07 05:08:47;;;;;;;2.35;1.55;;;;;;;0.42;100.00;101306.72;5000081;28;20060;-82
2023/04/07 05:11:13;;;;;;;3.67;1.38;;;;;;;0.31;100.00;101304.75;5016107;28;20042;-84
2023/04/07 05:13:39;;;;;;;5.57;1.60;;;;;;;0.29;100.00;101308.44;4999915;28;20033;-84
2023/04/07 05:16:05;;;;;;;3.17;1.40;;;;;;;0.23;100.00;101299.09;5000110;28;20431;-78
2023/04/07 05:18:31;;;;;;;2.95;1.50;;;;;;;0.26;100.00;101304.19;5015908;28;20030;-84
2023/04/07 05:20:57;;;;;;;2.05;1.60;;;;;;;0.26;100.00;101304.19;4999857;28;20049;-79
2023/04/07 05:23:22;;;;;;;2.38;1.58;;;;;;;0.23;100.00;101301.75;5000042;28;20110;-80
2023/04/07 05:25:49;;;;;;;2.50;1.52;;;;;;;0.23;100.00;101301.75;5000094;28;20392;-80
2023/04/07 05:28:14;;;;;;;3.03;1.52;;;;;;;0.24;100.00;101300.81;5016243;28;20203;-82
2023/04/07 05:30:40;;;;;;;2.63;1.38;;;;;;;0.27;100.00;101300.63;5032400;28;20447;-79
2023/04/07 05:33:06;;;;;;;2.88;1.35;;;;;;;0.31;100.00;101306.56;5032546;28;20041;-83
2023/04/07 05:35:32;;;;;;;3.22;1.67;;;;;;;0.32;100.00;101303.84;4999933;28;20495;-79
2023/04/07 05:37:57;;;;;;;3.90;1.60;;;;;;;0.31;100.00;101307.41;4999707;28;20028;-84
2023/04/07 05:40:23;;;;;;;3.20;1.42;;;;;;;0.36;100.00;101310.63;4999977;28;20032;-80
2023/04/07 05:42:49;;;;;;;2.22;1.40;;;;;;;0.40;100.00;101303.34;5016363;28;20034;-79
2023/04/07 05:45:15;;;;;;;6.38;1.65;;;;;;;0.42;100.00;101294.38;4999748;28;20108;-80
2023/04/07 05:47:40;;;;;;;5.18;1.23;;;;;;;0.51;100.00;101302.69;4999423;28;20091;-78
2023/04/07 05:50:06;;;;;;;1.98;1.58;;;;;;;0.60;100.00;101305.56;4999724;28;20041;-81
2023/04/07 05:52:32;;;;;;;3.75;1.60;;;;;;;0.63;100.00;101297.41;5016060;28;20030;-80
2023/04/07 05:54:58;;;;;;;3.92;1.60;;;;;;;0.70;100.00;101305.00;5015564;28;20112;-78
2023/04/07 05:57:26;;;;;;;6.38;1.73;;;;;;;0.69;100.00;101290.91;4999763;28;20499;-80
2023/04/07 05:59:51;;;;;;;3.60;1.67;;;;;;;0.72;100.00;101296.00;5015942;28;20036;-82
2023/04/07 06:02:17;;;;;;;4.03;1.30;;;;;;;0.79;100.00;101297.28;4999864;28;20041;-79
2023/04/07 06:04:43;;;;;;;3.45;1.40;;;;;;;0.94;100.00;101306.03;5034699;28;20148;-80
2023/04/07 06:07:08;;;;;;;2.90;1.60;;;;;;;1.00;100.00;101295.03;5003468;28;20048;-80
2023/04/07 06:09:34;;;;;;;1.17;0.93;;;;;;;1.24;100.00;101302.31;5003651;28;20052;-81
2023/04/07 06:12:01;;;;;;;4.30;1.60;;;;;;;1.56;100.00;101304.59;5036321;28;20392;-79
2023/04/07 06:14:26;;;;;;;5.93;1.80;;;;;;;1.73;100.00;101307.78;5037345;28;20033;-77
2023/04/07 06:16:52;;;;;;;5.13;1.70;;;;;;;1.85;100.00;101299.94;5003453;28;20044;-79
2023/04/07 06:19:17;;;;;;;2.38;1.73;;;;;;;1.99;100.00;101286.59;5003276;28;20415;-84
2023/04/07 06:21:43;;;;;;;10.50;3.42;;;;;;;2.36;100.00;101303.41;5003478;28;20022;-80
2023/04/07 06:24:09;;;;;;;9.05;3.22;;;;;;;2.52;100.00;101297.84;5003433;28;20033;-80
2023/04/07 06:26:35;;;;;;;6.75;2.25;;;;;;;2.75;100.00;101293.53;5003034;28;20484;-80
2023/04/07 06:29:00;;;;;;;4.15;2.10;;;;;;;2.94;100.00;101293.03;5003280;28;20037;-81
2023/04/07 06:31:27;;;;;;;6.38;2.30;;;;;;;3.21;100.00;101299.91;5019212;28;20076;-80
2023/04/07 06:33:53;;;;;;;5.10;1.98;;;;;;;3.42;100.00;101303.59;5035551;28;20029;-82
2023/04/07 06:36:20;;;;;;;3.92;2.05;;;;;;;3.48;100.00;101302.28;5003237;28;20530;-80
2023/04/07 06:38:46;;;;;;;6.35;2.20;;;;;;;3.61;100.00;101303.03;5035451;28;20400;-79
2023/04/07 06:41:15;;;;;;;7.60;2.50;;;;;;;3.81;100.00;101293.53;5002561;28;20491;-82
2023/04/07 06:43:43;;;;;;;7.50;2.65;;;;;;;3.97;100.00;101298.50;5019521;28;20029;-79
2023/04/07 06:46:11;;;;;;;5.05;2.20;;;;;;;4.10;100.00;101295.72;4987476;28;20057;-79
2023/04/07 06:48:36;;;;;;;5.93;2.85;;;;;;;4.20;100.00;101296.69;5002732;28;20056;-84
2023/04/07 06:51:02;;;;;;;7.75;2.97;;;;;;;4.22;100.00;101281.44;5035235;28;20061;-81
2023/04/07 06:53:28;;;;;;;8.48;3.47;;;;;;;4.46;100.00;101296.44;5002779;28;20025;-82
2023/04/07 06:56:03;;;;;;;8.02;3.15;;;;;;;4.58;100.00;101298.97;5019071;28;20128;-82
2023/04/07 06:58:29;;;;;;;12.15;3.55;;;;;;;4.70;100.00;101293.59;5002874;28;20132;-82
2023/04/07 07:00:54;;;;;;;9.30;3.53;;;;;;;4.78;100.00;101296.50;5002768;28;20034;-80
2023/04/07 07:03:20;;;;;;;5.85;2.60;;;;;;;4.93;100.00;101300.56;5002584;28;20387;-86
2023/04/07 07:05:46;;;;;;;7.55;3.00;;;;;;;5.12;100.00;101302.56;5002554;28;20061;-86
2023/04/07 07:08:11;;;;;;;5.53;3.42;;;;;;;5.28;100.00;101296.81;5018934;28;20030;-81
2023/04/07 07:10:37;;;;;;;5.32;2.60;;;;;;;5.46;100.00;101291.75;5002538;28;20041;-81
2023/04/07 07:13:03;;;;;;;7.38;3.05;;;;;;;5.68;100.00;101296.94;5018623;28;20033;-83
2023/04/07 07:15:28;;;;;;;15.00;6.93;;;;;;;5.95;100.00;101298.25;5018308;28;20395;-82
2023/04/07 07:17:54;;;;;;;21.35;9.00;;;;;;;6.41;100.00;101301.41;5001738;28;20040;-82
2023/04/07 07:20:22;;;;;;;24.75;9.90;;;;;;;6.80;100.00;101308.56;5035929;28;20064;-81
2023/04/07 07:22:48;;;;;;;8.55;4.00;;;;;;;7.05;100.00;101307.16;5002692;28;20043;-80
2023/04/07 07:25:13;;;;;;;13.50;6.47;;;;;;;7.46;100.00;101310.56;5034930;28;20104;-83
2023/04/07 07:27:39;;;;;;;18.55;6.38;;;;;;;7.86;100.00;101300.66;5001748;28;20029;-83
2023/04/07 07:30:05;;;;;;;5.80;3.85;;;;;;;7.88;100.00;101301.31;5017960;28;20022;-88
2023/04/07 07:32:31;;;;;;;6.07;2.42;;;;;;;7.72;100.00;101302.75;5002047;28;20067;-81
2023/04/07 07:34:56;;;;;;;5.45;2.33;;;;;;;7.95;100.00;101298.91;5002148;28;20033;-81
2023/04/07 07:37:33;;;;;;;6.53;2.88;;;;;;;8.21;100.00;101310.69;5002256;28;20072;-81
2023/04/07 07:39:59;;;;;;;5.72;3.35;;;;;;;8.00;100.00;101318.06;5034437;28;20400;-82
2023/04/07 07:42:24;;;;;;;12.40;5.40;;;;;;;7.77;100.00;101309.53;5035638;28;20041;-80
2023/04/07 07:44:53;;;;;;;4.25;2.33;;;;;;;7.60;100.00;101316.47;5018240;28;20041;-85
2023/04/07 07:47:24;;;;;;;6.05;2.40;;;;;;;7.48;100.00;101303.22;5034036;28;20495;-83
2023/04/07 07:49:50;;;;;;;7.38;2.78;;;;;;;7.46;100.00;101302.53;5034362;28;20026;-85
2023/04/07 07:52:19;;;;;;;11.65;5.00;;;;;;;7.89;100.00;101313.75;5001577;28;20037;-83
2023/04/07 07:54:49;;;;;;;6.10;3.08;;;;;;;8.26;100.00;101308.41;5018540;28;20487;-82
2023/04/07 07:57:15;;;;;;;3.15;2.00;;;;;;;8.30;100.00;101301.75;5018156;28;20044;-83
2023/04/07 07:59:45;;;;;;;4.72;2.00;;;;;;;8.50;100.00;101318.63;5017754;28;20029;-83
2023/04/07 08:02:11;;;;;;;5.80;2.20;;;;;;;8.92;100.00;101318.09;5001851;28;20080;-88
2023/04/07 08:04:39;;;;;;;4.30;2.78;;;;;;;9.58;100.00;101316.00;5019919;28;20073;-81
2023/04/07 08:07:05;;;;;;;5.60;3.03;;;;;;;10.45;100.00;101303.47;5018566;28;20029;-83
2023/04/07 08:09:31;;;;;;;10.27;6.25;;;;;;;11.19;97.98;101318.84;5033779;28;20026;-83
2023/04/07 08:11:57;;;;;;;11.35;6.20;;;;;;;11.30;95.50;101312.28;5001482;28;20041;-83
2023/04/07 08:14:23;;;;;;;4.65;3.38;;;;;;;11.76;95.13;101330.63;5033563;28;20040;-84
2023/04/07 08:16:51;;;;;;;6.55;3.50;;;;;;;12.39;89.16;101324.47;5017346;28;20037;-83
2023/04/07 08:19:17;;;;;;;5.25;3.55;;;;;;;13.21;87.99;101326.75;5034836;28;20048;-85
2023/04/07 08:21:47;;;;;;;5.75;3.20;;;;;;;14.01;79.47;101323.56;5033536;28;20446;-88
2023/04/07 08:24:15;;;;;;;5.65;3.72;;;;;;;14.43;78.83;101322.09;5016754;28;20077;-86
2023/04/07 08:26:46;;;;;;;4.78;2.28;;;;;;;14.92;75.36;101321.50;5016877;28;20032;-82
2023/04/07 08:29:16;;;;;;;2.80;1.80;;;;;;;14.74;73.45;101326.47;5015388;28;20076;-81
2023/04/07 08:31:44;;;;;;;2.58;1.88;;;;;;;14.42;72.39;101315.00;5033075;28;20125;-82
2023/04/07 08:34:15;;;;;;;6.75;3.78;;;;;;;14.39;73.71;101319.94;5016995;28;20455;-89
2023/04/07 08:36:41;;;;;;;6.13;3.38;;;;;;;15.36;73.39;101322.34;5000932;28;20049;-76
2023/04/07 08:39:06;;;;;;;3.58;2.08;;;;;;;15.60;67.92;101318.41;5034565;28;20547;-76
2023/04/07 08:41:38;;;;;;;5.55;3.08;;;;;;;15.61;69.17;101320.06;5017119;28;20030;-77
2023/04/07 08:44:05;;;;;;;8.82;5.25;;;;;;;15.61;71.10;101328.19;5033435;28;20029;-77
2023/04/07 08:46:32;;;;;;;4.18;1.80;;;;;;;15.03;68.02;101309.31;5000523;28;20056;-77
2023/04/07 08:48:58;;;;;;;8.05;1.83;;;;;;;14.72;70.46;101320.41;5000426;28;20469;-76
2023/04/07 08:51:30;;;;;;;3.83;1.90;;;;;;;14.78;70.41;101327.75;5000572;28;20025;-79
2023/04/07 08:54:17;;;;;;;2.83;1.80;;;;;;;14.93;71.29;101333.16;4984348;28;20387;-80
2023/04/07 08:56:43;;;;;;;5.90;3.13;;;;;;;15.34;71.82;101319.00;5032550;28;20033;-78
2023/04/07 08:59:11;;;;;;;5.18;2.88;;;;;;;15.90;68.58;101329.09;5032911;28;20092;-77
2023/04/07 09:01:38;;;;;;;6.38;2.83;;;;;;;15.93;67.51;101334.13;5032626;28;20064;-83
2023/04/07 09:04:06;;;;;;;5.72;2.53;;;;;;;15.80;65.59;101330.28;5016226;28;20029;-76
2023/04/07 09:06:32;;;;;;;5.63;3.17;;;;;;;15.78;68.80;101335.06;5000326;28;20025;-78
2023/04/07 09:08:59;;;;;;;4.13;2.67;;;;;;;16.01;66.12;101315.03;5016711;28;20033;-77
2023/04/07 09:11:26;;;;;;;3.85;2.45;;;;;;;15.96;65.98;101345.44;5016191;28;20555;-78
2023/04/07 09:13:52;;;;;;;4.15;2.55;;;;;;;15.60;66.72;101343.63;5016513;28;20034;-77
2023/04/07 09:16:18;;;;;;;4.72;2.80;;;;;;;15.70;67.10;101318.13;5032474;28;20064;-79
2023/04/07 09:18:43;;;;;;;3.85;2.58;;;;;;;16.39;65.97;101337.16;5032084;28;20104;-78
2023/04/07 09:21:10;;;;;;;5.13;2.45;;;;;;;17.34;62.65;101335.47;5016357;28;20036;-77
2023/04/07 09:23:40;;;;;;;3.95;2.78;;;;;;;18.21;60.39;101339.03;4999439;28;20490;-78
2023/04/07 09:26:27;;;;;;;7.68;6.88;;;;;;;18.17;57.10;101326.06;4999939;28;20033;-76
2023/04/07 09:29:01;;;;;;;3.15;2.30;;;;;;;17.64;59.46;101328.78;5032636;28;20037;-77
2023/04/07 09:31:51;;;;;;;4.88;3.22;;;;;;;18.50;59.45;101330.56;5031866;28;20033;-81
2023/04/07 09:34:28;;;;;;;4.30;3.00;;;;;;;18.25;57.21;101331.28;5030660;28;20096;-76
2023/04/07 09:36:56;;;;;;;4.22;2.28;;;;;;;16.59;62.62;101331.84;4999451;28;20129;-77
2023/04/07 09:39:22;;;;;;;3.85;1.80;;;;;;;16.17;63.76;101330.16;5015954;28;20033;-77
2023/04/07 09:41:48;;;;;;;3.72;2.35;;;;;;;15.73;68.41;101328.56;4999359;28;20091;-80
2023/04/07 09:44:14;;;;;;;3.95;2.40;;;;;;;15.69;69.92;101328.13;4999477;28;20045;-82
2023/04/07 09:46:58;;;;;;;4.22;3.00;;;;;;;17.13;64.25;101333.75;5031709;28;20116;-84
2023/04/07 09:49:25;;;;;;;3.72;2.70;;;;;;;17.23;61.46;101329.81;5032614;28;20040;-88
2023/04/07 09:51:55;;;;;;;3.88;2.65;;;;;;;16.87;62.12;101325.50;5015876;28;20040;-85
2023/04/07 09:54:41;;;;;;;3.60;2.22;;;;;;;18.45;55.92;101325.81;5032475;28;20060;-86
2023/04/07 09:57:09;;;;;;;3.53;2.10;;;;;;;19.21;53.10;101322.34;5015061;28;20061;-83
2023/04/07 09:59:41;;;;;;;2.97;2.65;;;;;;;19.69;51.46;101326.44;5031386;28;20148;-82
2023/04/07 10:02:13;;;;;;;4.40;2.67;;;;;;;20.62;49.98;101334.53;5030831;28;20132;-79
2023/04/07 10:04:41;;;;;;;3.95;2.42;;;;;;;21.13;47.88;101332.41;5015890;28;20036;-86
2023/04/07 10:07:10;;;;;;;3.28;2.00;;;;;;;19.32;50.48;101305.28;5032332;28;20117;-79
2023/04/07 10:09:36;;;;;;;3.72;1.90;;;;;;;19.46;49.48;101318.81;5037571;28;20025;-84
2023/04/07 10:12:02;;;;;;;3.63;2.22;;;;;;;18.12;51.28;101323.13;5042593;28;20038;-86
2023/04/07 10:14:35;;;;;;;2.80;2.40;;;;;;;16.63;57.07;101315.97;5019301;28;20083;-86
2023/04/07 10:17:02;;;;;;;3.30;2.07;;;;;;;16.89;58.22;101301.69;5039015;28;20058;-85
2023/04/07 10:19:32;;;;;;;3.00;2.15;;;;;;;17.28;57.20;101314.56;5000939;28;20034;-89
2023/04/07 10:21:58;;;;;;;2.85;1.42;;;;;;;16.86;55.16;101326.56;5034267;28;20496;-89
2023/04/07 10:24:58;;;;;;;2.60;1.58;;;;;;;17.05;55.29;101333.94;5034360;28;20075;-83
2023/04/07 10:27:34;;;;;;;1.65;1.20;;;;;;;16.42;56.08;101325.06;5036529;28;20041;-84
2023/04/07 10:30:00;;;;;;;1.58;1.20;;;;;;;15.82;55.35;101308.38;4988472;28;20045;-83
2023/04/07 10:32:26;;;;;;;1.38;1.13;;;;;;;15.01;55.74;101311.38;5034591;28;20068;-91
2023/04/07 10:34:54;;;;;;;5.38;3.35;;;;;;;15.54;56.11;101316.47;5034639;28;20025;-86
2023/04/07 10:37:21;;;;;;;4.97;2.75;;;;;;;16.57;52.99;101314.09;5033475;28;20037;-90
2023/04/07 10:39:48;;;;;;;1.55;1.25;;;;;;;16.40;51.32;101319.81;5016421;28;20026;-87
2023/04/07 10:42:35;;;;;;;1.90;1.42;;;;;;;17.11;50.72;101322.22;5033989;28;20124;-88
2023/04/07 10:45:02;;;;;;;3.38;2.30;;;;;;;18.35;48.03;101319.97;5034015;28;20033;-82
2023/04/07 10:47:28;;;;;;;3.90;3.05;;;;;;;18.02;48.79;101315.44;5016199;28;20533;-84
2023/04/07 10:50:19;;;;;;;2.20;1.95;;;;;;;19.79;44.72;101304.91;5033556;28;20113;-90
2023/04/07 10:52:47;;;;;;;3.28;1.58;;;;;;;18.38;46.54;101311.34;5018465;28;20037;-83
2023/04/07 10:55:33;;;;;;;3.00;1.73;;;;;;;19.62;45.45;101307.34;5003607;28;20033;-84
2023/04/07 10:58:24;;;;;;;3.92;1.40;;;;;;;19.23;44.83;101308.47;5003731;28;20041;-84
2023/04/07 11:00:59;;;;;;;2.47;1.60;;;;;;;19.85;43.73;101312.22;5036184;28;20033;-92
2023/04/07 11:03:26;;;;;;;7.90;2.67;;;;;;;20.23;43.10;101297.56;5036949;28;20040;-90
2023/04/07 11:06:04;;;;;;;3.13;1.45;;;;;;;22.15;37.55;101295.84;5036109;28;20124;-85
2023/04/07 11:08:35;;;;;;;4.43;1.90;;;;;;;19.71;41.62;101288.81;5020974;28;20582;-83
2023/04/07 11:11:01;;;;;;;1.63;1.17;;;;;;;18.71;43.20;101286.72;5036634;28;20056;-91
2023/04/07 11:13:27;;;;;;;3.08;1.70;;;;;;;17.22;47.60;101290.88;5019500;28;20125;-88
2023/04/07 11:15:52;;;;;;;1.10;0.80;;;;;;;16.58;48.37;101291.31;5036980;28;20032;-89
2023/04/07 11:18:20;;;;;;;3.38;1.30;;;;;;;15.94;49.89;101287.00;5035836;28;20391;-92
2023/04/07 11:20:53;;;;;;;2.97;1.52;;;;;;;15.76;51.14;101274.78;5035665;28;20021;-82
2023/04/07 11:23:22;;;;;;;5.65;3.30;;;;;;;17.49;49.61;101285.47;5019451;28;20045;-87
2023/04/07 11:25:49;;;;;;;7.43;2.65;;;;;;;18.18;45.72;101285.03;5019362;28;20034;-87
2023/04/07 11:28:15;;;;;;;5.63;2.80;;;;;;;16.55;49.40;101289.84;5035237;28;20025;-91